x

West Santa Barbara 38 Nm West Of Santa Barbara, Ca (46054) Wave Buoy

11:50 - Tue 25th Apr 2017 All times are PDT. -7 hours from GMT.

  • Sig Wave height 9.5ft
  • Swell Direction
  • Peak Period 11s
  • Average Period 7s
  • Wind
    25mph, 31mph gusts
  • Sea Temp 52°f
  • Ar Temp 54°f
  • Sea Pressure 1017.1mb
  • West Santa Barbara  38 Nm West Of Santa Barbara, Ca
  • West Santa Barbara  38 Nm West Of Santa Barbara, Ca

More Historic Weather Station data

Upgrade to MSW Pro to gain access to the past 30 days of data for over 8000 Wavebouys and Weather Stations around the globe.

Join Pro

Comparision Forecast

View Surf forecast
   
Ter 04/25 11:50 9.5ft 11s 7s 25 31 mph 1017.1mb 52f 54f
10:50 8ft 8s 6s 27 31 mph 1016.8mb 52f 53f
9:50 9ft 11s 7s 27 31 mph 1015.9mb 52f 53f
8:50 9ft 8s 6s 25 29 mph 1015.5mb 52f 53f
7:50 8.5ft 11s 6s 25 29 mph 1015.4mb 52f 53f
6:50 8ft 12s 6s 27 31 mph 1015mb 52f 53f
5:50 8ft 7s 6s 27 31 mph 1014.4mb 52f 53f
4:50 8ft 12s 6s 25 29 mph 1014.4mb 52f 54f
3:50 8ft 12s 6s 25 27 mph 1014.4mb 52f 54f
2:50 9ft 8s 6s 25 29 mph 1014.8mb 52f 53f
1:50 8.5ft 7s 7s 22 29 mph 1015.2mb 52f 54f
12:50 9ft 8s 7s 20 25 mph 1015.6mb 52f 54f
Seg 04/24 11:50 9.5ft 8s 7s 22 27 mph 1015.5mb 52f 54f
10:50 10ft 8s 7s 22 27 mph 1015.2mb 52f 54f
9:50 9ft 13s 7s 25 27 mph 1015.3mb 52f 54f
8:50 10ft 11s 7s 25 29 mph 1015.3mb 52f 55f
7:50 9.5ft 11s 7s 25 29 mph 1014.2mb 53f 54f
6:50 9ft 11s 7s 22 27 mph 1014.7mb 53f 55f
5:50 9ft 11s 7s 27 29 mph 1014.8mb 53f 55f
4:50 8.5ft 14s 6s 27 31 mph 1014.9mb 53f 55f
3:50 9ft 11s 7s 25 29 mph 1015.3mb 53f 55f
2:50 10ft 12s 7s 25 31 mph 1015.9mb 53f 54f
1:50 9.5ft 12s 7s 22 25 mph 1016.4mb 53f 54f
12:50 10ft 13s 7s 27 31 mph 1016.5mb 53f 54f
11:50 11ft 14s 7s 27 31 mph 1016.6mb 52f 54f
10:50 11ft 14s 7s 29 34 mph 1016.1mb 52f 54f
9:50 11ft 13s 7s 29 36 mph 1015.5mb 52f 54f
8:50 10.5ft 13s 7s 29 36 mph 1015.2mb 52f 54f
7:50 12ft 14s 7s 31 38 mph 1014.3mb 51f 53f
6:50 10ft 14s 7s 29 34 mph 1013.9mb 51f 53f
4:50 10ft 14s 7s 29 34 mph 1013.4mb 52f 53f
3:50 10ft 14s 7s 29 34 mph 1013mb 52f 53f
2:50 11ft 14s 7s 29 38 mph 1012.9mb 52f 54f
1:50 11ft 8s 7s 27 34 mph 1013.1mb 52f 54f
12:50 10.5ft 8s 7s 29 36 mph 1013.4mb 52f 54f
Dom 04/23 11:50 10.5ft 8s 7s 29 34 mph 1013.1mb 53f 55f
10:50 10.5ft 8s 7s 25 31 mph 1013.1mb 53f 55f
9:50 10ft 15s 7s 27 34 mph 1013mb 53f 55f
8:50 10ft 8s 7s 29 36 mph 1012.3mb 53f 55f
7:50 9ft 8s 6s 27 31 mph 1012.2mb 53f 55f
6:50 10ft 14s 7s 25 31 mph 1012.6mb 54f 55f
5:50 9.5ft 15s 6s 29 36 mph 1012.2mb 54f 55f
4:50 10ft 8s 7s 29 34 mph 1012.5mb 54f 55f
3:50 10ft 13s 7s 27 34 mph 1012.9mb 53f 55f
2:50 9ft 7s 6s 27 31 mph 1013.4mb 53f 55f
1:50 9ft 13s 7s 27 31 mph 1013.7mb 53f 55f
12:50 9.5ft 14s 7s 27 34 mph 1013.5mb 53f 55f
11:50 9.5ft 14s 7s 29 34 mph 1013.7mb 53f 55f
10:50 9ft 14s 7s 27 34 mph 1013.4mb 53f 55f
9:50 10ft 15s 7s 25 29 mph 1013mb 53f 55f
8:50 9.5ft 8s 7s 22 27 mph 1013.1mb 52f 54f
7:50 8.5ft 15s 6s 25 31 mph 1013mb 52f 54f
6:50 7.5ft 7s 6s 27 34 mph 1012mb 52f 54f
5:50 7ft 7s 5s 29 34 mph 1011.1mb 52f 54f
4:50 6ft 16s 5s 27 34 mph 1011.1mb 52f 54f
3:50 5ft 16s 5s 27 31 mph 1011.2mb 52f 54f
2:50 5ft 16s 5s 25 29 mph 1011.4mb 52f 54f
1:50 5ft 6s 5s 25 29 mph 1012.1mb 52f 55f
12:50 5ft 6s 5s 22 27 mph 1012.7mb 52f 55f
Sáb 04/22 11:50 5ft 6s 5s 22 25 mph 1012.5mb 53f 55f
10:50 5.5ft 6s 5s 22 27 mph 1012.9mb 52f 55f
9:50 5ft 6s 5s 22 29 mph 1012.9mb 52f 55f
8:50 6ft 6s 5s 25 29 mph 1012.1mb 52f 55f
7:50 6ft 16s 5s 25 29 mph 1011.8mb 52f 56f
6:50 6ft 6s 5s 25 29 mph 1012.2mb 52f 55f
4:50 5.5ft 16s 5s 25 29 mph 1012.6mb 52f 56f
3:50 6ft 16s 5s 25 29 mph 1012.8mb 52f 56f
2:50 5.5ft 5s 5s 25 27 mph 1013.1mb 52f 56f
1:50 6ft 16s 6s 25 29 mph 1013mb 52f 56f
12:50 6ft 16s 5s 25 29 mph 1012.9mb 52f 56f
11:50 6ft 16s 5s 25 29 mph 1013.1mb 52f 56f
10:50 6ft 16s 6s 22 27 mph 1013.1mb 52f 55f
9:50 7ft 10s 6s 27 31 mph 1012.7mb 52f 55f
8:50 7ft 10s 6s 27 29 mph 1012.6mb 52f 55f
7:50 7ft 10s 6s 27 31 mph 1012.4mb 52f 55f
6:50 7.5ft 11s 6s 27 34 mph 1012mb 52f 55f
4:50 8ft 11s 6s 27 31 mph 1011.8mb 52f 55f
3:50 7.5ft 11s 6s 25 29 mph 1012mb 52f 55f
2:50 7.5ft 11s 6s 27 29 mph 1012mb 52f 55f
1:50 8ft 11s 6s 25 31 mph 1012.1mb 52f 56f
12:50 8.5ft 12s 6s 27 31 mph 1012.2mb 52f 56f
Sex 04/21 11:50 8ft 11s 6s 27 34 mph 1012.2mb 52f 56f
10:50 8ft 12s 6s 27 34 mph 1012.4mb 52f 56f
9:50 8ft 12s 6s 27 31 mph 1012.3mb 52f 57f
8:50 8ft 11s 7s 22 29 mph 1012mb 52f 56f